createdAt,value
2023-02-13T00:01:34.248Z,8.63
2023-02-13T00:04:02.900Z,8.70
2023-02-13T00:06:32.880Z,8.30
2023-02-13T00:09:02.779Z,9.57
2023-02-13T00:11:31.501Z,7.70
2023-02-13T00:14:00.271Z,8.83
2023-02-13T00:16:28.933Z,8.27
2023-02-13T00:18:58.476Z,8.03
2023-02-13T00:21:27.316Z,8.00
2023-02-13T00:23:57.658Z,8.50
2023-02-13T00:26:26.498Z,9.17
2023-02-13T00:28:55.279Z,8.93
2023-02-13T00:31:26.595Z,8.70
2023-02-13T00:33:55.521Z,9.23
2023-02-13T00:36:25.205Z,8.97
2023-02-13T00:38:56.581Z,8.57
2023-02-13T00:41:25.508Z,7.57
2023-02-13T00:43:54.333Z,8.67
2023-02-13T00:46:23.124Z,9.17
2023-02-13T00:48:51.909Z,7.73
2023-02-13T00:51:20.607Z,9.07
2023-02-13T00:53:49.415Z,8.80
2023-02-13T00:56:19.568Z,9.00
2023-02-13T00:58:48.319Z,8.77
2023-02-13T01:01:17.003Z,8.70
2023-02-13T01:03:45.931Z,10.47
2023-02-13T01:06:14.646Z,8.97
2023-02-13T01:08:43.871Z,9.60
2023-02-13T01:11:12.774Z,8.90
2023-02-13T01:13:43.361Z,8.90
2023-02-13T01:16:12.205Z,9.50
2023-02-13T01:18:41.273Z,9.40
2023-02-13T01:21:18.090Z,9.30
2023-02-13T01:23:48.076Z,8.80
2023-02-13T01:26:20.669Z,9.30
2023-02-13T01:28:55.912Z,9.10
2023-02-13T01:31:24.863Z,9.17
2023-02-13T01:33:53.799Z,8.40
2023-02-13T01:36:24.374Z,8.27
2023-02-13T01:38:55.654Z,7.90
2023-02-13T01:41:27.311Z,9.77
2023-02-13T01:44:01.251Z,9.27
2023-02-13T01:46:34.448Z,11.33
2023-02-13T01:49:13.324Z,8.20
2023-02-13T01:51:42.871Z,8.33
2023-02-13T01:54:16.233Z,8.67
2023-02-13T01:56:48.108Z,9.07
2023-02-13T01:59:23.655Z,8.97
2023-02-13T02:01:52.880Z,8.30
2023-02-13T02:04:25.468Z,7.50
2023-02-13T02:06:59.515Z,8.27
2023-02-13T02:09:38.035Z,9.53
2023-02-13T02:12:11.766Z,8.80
2023-02-13T02:14:43.615Z,8.63
2023-02-13T02:17:13.293Z,9.23
2023-02-13T02:19:55.375Z,8.53
2023-02-13T02:23:19.459Z,8.00
2023-02-13T02:26:36.039Z,7.60
2023-02-13T02:29:35.624Z,8.07
2023-02-13T02:32:29.745Z,8.27
2023-02-13T02:35:12.431Z,8.83
2023-02-13T02:38:00.849Z,9.63
2023-02-13T02:40:39.711Z,8.20
2023-02-13T02:43:25.226Z,9.23
2023-02-13T02:46:02.044Z,8.93
2023-02-13T02:48:53.883Z,8.37
2023-02-13T02:51:32.314Z,7.87
2023-02-13T02:54:31.473Z,8.07
2023-02-13T02:57:11.669Z,9.80
2023-02-13T03:00:02.634Z,9.50
2023-02-13T03:02:49.570Z,8.67
2023-02-13T03:05:39.618Z,7.80
2023-02-13T03:08:08.692Z,8.17
2023-02-13T03:10:57.641Z,9.43
2023-02-13T03:13:41.202Z,9.20
2023-02-13T03:16:34.838Z,9.80
2023-02-13T03:19:21.383Z,7.67
2023-02-13T03:22:15.648Z,8.77
2023-02-13T03:24:54.734Z,9.90
2023-02-13T03:27:53.618Z,8.73
2023-02-13T03:30:35.950Z,9.27
2023-02-13T03:33:27.396Z,10.13
2023-02-13T03:36:24.782Z,10.07
2023-02-13T03:39:00.707Z,9.03
2023-02-13T03:41:32.744Z,8.57
2023-02-13T03:44:13.670Z,9.83
2023-02-13T03:46:46.568Z,7.80
2023-02-13T03:49:40.366Z,10.67
2023-02-13T03:52:19.031Z,9.60
2023-02-13T03:55:12.339Z,9.30
2023-02-13T03:58:00.770Z,7.67
2023-02-13T04:00:37.257Z,9.03
2023-02-13T04:03:13.690Z,8.60
2023-02-13T04:05:49.718Z,8.73
2023-02-13T04:08:18.480Z,9.83
2023-02-13T04:10:56.253Z,8.33
2023-02-13T04:13:33.014Z,8.60
2023-02-13T04:16:09.644Z,9.00
2023-02-13T04:18:39.977Z,9.57
2023-02-13T04:21:09.598Z,10.10
2023-02-13T04:23:38.375Z,8.83
2023-02-13T04:26:16.506Z,10.77
2023-02-13T04:28:45.150Z,9.53
2023-02-13T04:31:14.187Z,8.27
2023-02-13T04:33:43.010Z,7.57
2023-02-13T04:36:11.749Z,8.27
2023-02-13T04:38:40.371Z,9.17
2023-02-13T04:41:10.442Z,10.57
2023-02-13T04:43:39.080Z,9.50
2023-02-13T04:46:07.983Z,8.83
2023-02-13T04:48:38.726Z,10.57
2023-02-13T04:51:07.829Z,10.23
2023-02-13T04:53:36.595Z,9.97
2023-02-13T04:56:05.838Z,10.93
2023-02-13T04:58:35.989Z,11.17
2023-02-13T05:01:12.229Z,9.53
2023-02-13T05:03:40.953Z,9.70
2023-02-13T05:06:09.744Z,10.07
2023-02-13T05:08:38.471Z,12.33
2023-02-13T05:11:07.220Z,9.27
2023-02-13T05:13:37.264Z,9.50
2023-02-13T05:16:06.638Z,9.60
2023-02-13T05:18:35.336Z,9.37
2023-02-13T05:21:21.308Z,8.73
2023-02-13T05:23:49.924Z,8.97
2023-02-13T05:26:18.602Z,8.50
2023-02-13T05:29:05.811Z,7.83
2023-02-13T05:31:34.550Z,7.40
2023-02-13T05:34:03.215Z,10.13
2023-02-13T05:36:31.841Z,9.77
2023-02-13T05:39:00.451Z,7.60
2023-02-13T05:41:29.104Z,9.57
2023-02-13T05:43:59.280Z,9.67
2023-02-13T05:46:28.089Z,10.23
2023-02-13T05:48:56.930Z,10.43
2023-02-13T05:51:26.046Z,7.57
2023-02-13T05:53:54.695Z,7.90
2023-02-13T05:56:23.654Z,10.63
2023-02-13T05:58:53.822Z,8.33
2023-02-13T06:01:25.616Z,10.83
2023-02-13T06:03:54.460Z,9.23
2023-02-13T06:06:23.477Z,8.27
2023-02-13T06:08:52.512Z,11.93
2023-02-13T06:11:21.284Z,9.50
2023-02-13T06:13:49.916Z,8.83
2023-02-13T06:16:18.692Z,8.93
2023-02-13T06:18:48.656Z,9.40
2023-02-13T06:21:17.319Z,7.70
2023-02-13T06:23:46.102Z,10.13
2023-02-13T06:26:14.802Z,11.47
2023-02-13T06:28:43.631Z,10.73
2023-02-13T06:31:12.556Z,11.60
2023-02-13T06:33:41.414Z,8.90
2023-02-13T06:36:11.469Z,11.00
2023-02-13T06:38:40.118Z,10.93
2023-02-13T06:41:08.679Z,12.43
2023-02-13T06:43:39.842Z,13.63
2023-02-13T06:46:10.199Z,11.27
2023-02-13T06:48:38.909Z,14.37
2023-02-13T06:51:07.787Z,12.27
2023-02-13T06:53:37.832Z,12.73
2023-02-13T06:56:07.301Z,13.37
2023-02-13T06:58:35.945Z,13.37
2023-02-13T07:01:04.691Z,11.00
2023-02-13T07:03:33.482Z,13.90
2023-02-13T07:06:02.182Z,14.97
2023-02-13T07:08:30.877Z,13.77
2023-02-13T07:11:00.898Z,12.90
2023-02-13T07:13:29.521Z,12.23
2023-02-13T07:16:02.255Z,12.27
2023-02-13T07:18:30.912Z,10.67
2023-02-13T07:21:00.169Z,12.73
2023-02-13T07:23:28.813Z,11.43
2023-02-13T07:26:01.436Z,13.23
2023-02-13T07:28:30.540Z,11.70
2023-02-13T07:30:59.821Z,12.03
2023-02-13T07:33:28.564Z,12.33
2023-02-13T07:35:57.275Z,14.27
2023-02-13T07:38:25.884Z,11.00
2023-02-13T07:40:54.584Z,11.37
2023-02-13T07:43:25.076Z,12.50
2023-02-13T07:45:55.736Z,11.00
2023-02-13T07:48:27.274Z,13.40
2023-02-13T07:50:56.551Z,13.10
2023-02-13T07:53:25.333Z,10.30
2023-02-13T07:55:54.051Z,11.13
2023-02-13T07:58:24.398Z,12.17
2023-02-13T08:00:52.997Z,11.23
2023-02-13T08:03:21.626Z,12.40
2023-02-13T08:05:50.695Z,10.63
2023-02-13T08:08:19.374Z,10.93
2023-02-13T08:11:05.544Z,11.70
2023-02-13T08:13:37.420Z,11.77
2023-02-13T08:16:06.509Z,9.67
2023-02-13T08:18:35.330Z,10.37
2023-02-13T08:21:04.251Z,10.00
2023-02-13T08:23:32.961Z,12.13
2023-02-13T08:26:02.726Z,13.20
2023-02-13T08:28:31.783Z,11.70
2023-02-13T08:31:01.931Z,11.73
2023-02-13T08:33:31.548Z,11.70
2023-02-13T08:36:00.329Z,12.33
2023-02-13T08:38:29.412Z,10.70
2023-02-13T08:40:58.851Z,12.33
2023-02-13T08:43:27.795Z,11.27
2023-02-13T08:46:01.761Z,9.67
2023-02-13T08:48:31.599Z,10.10
2023-02-13T08:51:00.347Z,9.73
2023-02-13T08:53:28.962Z,10.37
2023-02-13T08:55:59.819Z,10.03
2023-02-13T08:58:28.563Z,10.63
2023-02-13T09:00:57.385Z,9.77
2023-02-13T09:03:27.715Z,11.83
2023-02-13T09:06:00.188Z,9.33
2023-02-13T09:08:29.658Z,10.00
2023-02-13T09:11:01.263Z,9.73
2023-02-13T09:13:30.679Z,10.60
2023-02-13T09:16:01.602Z,10.43
2023-02-13T09:18:32.024Z,10.27
2023-02-13T09:21:02.211Z,10.70
2023-02-13T09:23:33.526Z,9.33
2023-02-13T09:26:03.144Z,10.27
2023-02-13T09:28:32.909Z,10.77
2023-02-13T09:31:01.932Z,10.00
2023-02-13T09:33:32.073Z,9.23
2023-02-13T09:36:00.727Z,11.83
2023-02-13T09:38:29.332Z,10.10
2023-02-13T09:41:03.256Z,9.53
2023-02-13T09:43:36.826Z,9.73
2023-02-13T09:46:13.556Z,10.40
2023-02-13T09:48:48.218Z,9.20
2023-02-13T09:51:20.974Z,11.03
2023-02-13T09:53:55.006Z,10.37
2023-02-13T09:56:41.928Z,8.83
2023-02-13T09:59:32.583Z,8.20
2023-02-13T10:02:15.557Z,8.47
2023-02-13T10:04:56.044Z,8.50
2023-02-13T10:07:35.405Z,8.27
2023-02-13T10:10:18.211Z,7.97
2023-02-13T10:12:59.350Z,7.33
2023-02-13T10:15:38.819Z,9.30
2023-02-13T10:18:13.310Z,7.20
2023-02-13T10:20:47.324Z,7.57
2023-02-13T10:23:24.201Z,10.43
2023-02-13T10:26:14.008Z,6.97
2023-02-13T10:29:08.250Z,6.93
2023-02-13T10:31:39.696Z,8.10
2023-02-13T10:34:15.449Z,6.47
2023-02-13T10:36:48.409Z,6.40
2023-02-13T10:39:26.772Z,6.27
2023-02-13T10:41:59.111Z,6.83
2023-02-13T10:44:43.523Z,6.77
2023-02-13T10:47:26.913Z,6.90
2023-02-13T10:50:13.433Z,6.37
2023-02-13T10:52:56.252Z,6.10
2023-02-13T10:56:03.501Z,5.77
2023-02-13T10:58:51.881Z,5.90
2023-02-13T11:01:31.192Z,7.37
2023-02-13T11:04:08.696Z,6.03
2023-02-13T11:06:43.811Z,6.37
2023-02-13T11:09:14.285Z,5.53
2023-02-13T11:11:44.125Z,5.13
2023-02-13T11:14:16.932Z,5.60
2023-02-13T11:16:56.396Z,5.83
2023-02-13T11:19:31.992Z,6.13
2023-02-13T11:22:05.325Z,6.13
2023-02-13T11:24:35.882Z,5.53
2023-02-13T11:27:09.376Z,5.30
2023-02-13T11:29:53.199Z,5.33
2023-02-13T11:32:24.516Z,6.03
2023-02-13T11:34:54.862Z,5.97
2023-02-13T11:37:27.890Z,5.80
2023-02-13T11:40:00.192Z,6.03
2023-02-13T11:42:33.021Z,5.47
2023-02-13T11:45:05.535Z,5.23
2023-02-13T11:47:41.198Z,5.40
2023-02-13T11:50:25.706Z,4.90
2023-02-13T11:53:00.625Z,6.87
2023-02-13T11:55:34.779Z,5.23
2023-02-13T11:58:24.547Z,4.63
2023-02-13T12:01:25.561Z,6.17
2023-02-13T12:04:07.410Z,5.03
2023-02-13T12:06:40.792Z,5.60
2023-02-13T12:09:15.922Z,4.67
2023-02-13T12:11:49.593Z,4.73
2023-02-13T12:14:22.151Z,5.60
2023-02-13T12:16:56.568Z,5.00
2023-02-13T12:19:31.349Z,4.57
2023-02-13T12:22:21.873Z,4.47
2023-02-13T12:25:23.001Z,5.20
2023-02-13T12:28:11.463Z,4.67
2023-02-13T12:31:33.754Z,3.83
2023-02-13T12:34:52.442Z,3.70
2023-02-13T12:37:35.909Z,4.27
2023-02-13T12:40:31.415Z,4.90
2023-02-13T12:43:47.855Z,4.20
2023-02-13T12:46:23.624Z,4.00
2023-02-13T12:49:04.567Z,6.07
2023-02-13T12:51:45.842Z,5.13
2023-02-13T12:54:38.063Z,6.07
2023-02-13T12:57:32.463Z,7.90
2023-02-13T13:00:26.570Z,4.93
2023-02-13T13:03:35.020Z,13.17
2023-02-13T13:06:23.774Z,7.80
2023-02-13T13:09:19.235Z,7.83
2023-02-13T13:12:15.350Z,7.10
2023-02-13T13:14:54.966Z,9.10
2023-02-13T13:17:45.668Z,10.17
2023-02-13T13:20:45.210Z,10.70
2023-02-13T13:23:20.708Z,9.80
2023-02-13T13:25:59.354Z,7.20
2023-02-13T13:28:32.242Z,7.87
2023-02-13T13:31:01.566Z,7.77
2023-02-13T13:33:32.688Z,7.30
2023-02-13T13:36:08.749Z,8.57
2023-02-13T13:38:52.860Z,6.57
2023-02-13T13:41:33.208Z,6.70
2023-02-13T13:44:27.531Z,7.03
2023-02-13T13:47:04.801Z,6.63
2023-02-13T13:49:50.040Z,7.90
2023-02-13T13:52:28.547Z,7.77
2023-02-13T13:55:00.677Z,7.90
2023-02-13T13:58:02.998Z,6.90
2023-02-13T14:00:32.723Z,7.07
2023-02-13T14:03:25.927Z,6.93
2023-02-13T14:06:06.030Z,8.90
2023-02-13T14:09:34.691Z,8.03
2023-02-13T14:12:39.770Z,7.70
2023-02-13T14:15:53.435Z,7.67
2023-02-13T14:18:24.300Z,7.37
2023-02-13T14:20:55.048Z,6.37
2023-02-13T14:23:49.813Z,6.73
2023-02-13T14:26:38.273Z,5.83
2023-02-13T14:29:34.446Z,6.20
2023-02-13T14:32:22.839Z,6.17
2023-02-13T14:34:58.620Z,6.47
2023-02-13T14:37:37.417Z,6.93
2023-02-13T14:40:54.151Z,7.37
2023-02-13T14:43:40.740Z,6.13
2023-02-13T14:46:25.686Z,6.17
2023-02-13T14:49:01.468Z,5.70
2023-02-13T14:51:36.596Z,5.97
2023-02-13T14:54:11.326Z,5.50
2023-02-13T14:56:40.940Z,7.63
2023-02-13T14:59:17.849Z,5.30
2023-02-13T15:01:54.077Z,5.17
2023-02-13T15:04:32.358Z,5.57
2023-02-13T15:07:03.616Z,7.50
2023-02-13T15:09:38.980Z,5.57
2023-02-13T15:12:26.918Z,5.10
2023-02-13T15:14:55.616Z,4.37
2023-02-13T15:17:29.998Z,5.30
2023-02-13T15:20:09.916Z,5.07
2023-02-13T15:22:41.468Z,6.10
2023-02-13T15:25:10.750Z,5.73
2023-02-13T15:27:44.674Z,6.37
2023-02-13T15:30:24.840Z,15.87
2023-02-13T15:32:59.042Z,14.87
2023-02-13T15:35:31.701Z,10.80
2023-02-13T15:38:01.781Z,11.10
2023-02-13T15:40:33.482Z,9.17
2023-02-13T15:43:02.799Z,9.20
2023-02-13T15:45:32.051Z,9.97
2023-02-13T15:48:00.783Z,9.40
2023-02-13T15:50:35.984Z,9.50
2023-02-13T15:53:12.371Z,9.23
2023-02-13T15:55:41.131Z,9.30
2023-02-13T15:58:14.642Z,8.20
2023-02-13T16:00:44.550Z,8.13
2023-02-13T16:03:18.431Z,9.37
2023-02-13T16:05:49.207Z,9.37
2023-02-13T16:08:35.985Z,8.47
2023-02-13T16:11:30.759Z,9.67
2023-02-13T16:14:09.402Z,10.27
2023-02-13T16:16:50.972Z,9.97
2023-02-13T16:19:27.146Z,11.60
2023-02-13T16:21:59.534Z,9.40
2023-02-13T16:24:29.210Z,11.37
2023-02-13T16:26:58.352Z,12.00
2023-02-13T16:29:28.641Z,11.03
2023-02-13T16:32:20.246Z,10.17
2023-02-13T16:34:56.934Z,10.20
2023-02-13T16:37:33.384Z,9.63
2023-02-13T16:40:34.826Z,9.60
2023-02-13T16:43:39.517Z,12.17
2023-02-13T16:46:31.654Z,9.20
2023-02-13T16:49:22.812Z,12.27
2023-02-13T16:52:02.236Z,11.70
2023-02-13T16:54:41.186Z,8.97
2023-02-13T16:57:25.434Z,9.17
2023-02-13T17:00:08.378Z,8.60
2023-02-13T17:02:40.041Z,9.37
2023-02-13T17:05:23.159Z,8.27
2023-02-13T17:07:57.114Z,9.53
2023-02-13T17:10:31.176Z,8.30
2023-02-13T17:13:03.912Z,8.53
2023-02-13T17:15:34.033Z,9.47
2023-02-13T17:18:03.638Z,7.97
2023-02-13T17:20:35.665Z,6.47
2023-02-13T17:23:09.446Z,5.33
2023-02-13T17:25:40.057Z,5.63
2023-02-13T17:28:14.701Z,3.80
2023-02-13T17:30:44.839Z,5.40
2023-02-13T17:33:15.734Z,4.47
2023-02-13T17:35:44.430Z,4.20
2023-02-13T17:38:13.091Z,4.43
2023-02-13T17:40:45.133Z,4.07
2023-02-13T17:43:17.139Z,5.50
2023-02-13T17:45:47.526Z,5.63
2023-02-13T17:48:16.354Z,8.73
2023-02-13T17:50:45.352Z,11.40
2023-02-13T17:53:22.067Z,13.70
2023-02-13T17:55:52.317Z,16.00
2023-02-13T17:58:21.171Z,14.43
2023-02-13T18:00:50.864Z,15.37
2023-02-13T18:03:19.622Z,14.83
2023-02-13T18:05:50.060Z,18.13
2023-02-13T18:08:20.191Z,20.37
2023-02-13T18:10:48.991Z,26.23
2023-02-13T18:13:19.120Z,30.03
2023-02-13T18:15:48.106Z,22.13
2023-02-13T18:18:18.371Z,18.73
2023-02-13T18:20:47.106Z,15.90
2023-02-13T18:23:15.724Z,19.20
2023-02-13T18:25:45.071Z,14.27
2023-02-13T18:28:14.400Z,14.90
2023-02-13T18:30:44.852Z,11.80
2023-02-13T18:33:13.490Z,12.60
2023-02-13T18:35:42.427Z,12.37
2023-02-13T18:38:10.979Z,11.80
2023-02-13T18:40:39.621Z,14.50
2023-02-13T18:43:08.227Z,11.23
2023-02-13T18:45:37.739Z,9.60
2023-02-13T18:48:09.437Z,9.00
2023-02-13T18:50:40.935Z,7.70
2023-02-13T18:53:09.825Z,8.73
2023-02-13T18:55:38.560Z,9.23
2023-02-13T18:58:07.571Z,9.40
2023-02-13T19:00:36.350Z,9.90
2023-02-13T19:03:05.029Z,8.37
2023-02-13T19:05:35.038Z,8.60
2023-02-13T19:08:05.767Z,9.83
2023-02-13T19:10:37.793Z,9.23
2023-02-13T19:13:24.854Z,7.73
2023-02-13T19:15:53.536Z,7.47
2023-02-13T19:18:22.355Z,8.50
2023-02-13T19:20:52.375Z,9.20
2023-02-13T19:23:20.998Z,8.00
2023-02-13T19:25:49.611Z,8.27
2023-02-13T19:28:18.231Z,7.73
2023-02-13T19:30:46.929Z,7.77
2023-02-13T19:33:15.599Z,8.33
2023-02-13T19:35:44.335Z,8.03
2023-02-13T19:38:14.727Z,8.03
2023-02-13T19:40:43.329Z,9.57
2023-02-13T19:43:11.935Z,7.87
2023-02-13T19:45:40.635Z,7.83
2023-02-13T19:48:09.248Z,8.50
2023-02-13T19:50:38.940Z,9.07
2023-02-13T19:53:08.566Z,9.07
2023-02-13T19:55:38.625Z,6.90
2023-02-13T19:58:07.240Z,7.60
2023-02-13T20:00:35.828Z,7.83
2023-02-13T20:03:05.317Z,8.77
2023-02-13T20:05:40.552Z,10.93
2023-02-13T20:08:09.214Z,9.53
2023-02-13T20:10:39.611Z,9.17
2023-02-13T20:13:08.230Z,8.97
2023-02-13T20:15:36.835Z,10.50
2023-02-13T20:18:06.171Z,9.47
2023-02-13T20:20:34.914Z,8.73
2023-02-13T20:23:03.772Z,8.80
2023-02-13T20:25:32.477Z,8.50
2023-02-13T20:28:02.519Z,7.77
2023-02-13T20:30:31.486Z,7.30
2023-02-13T20:33:00.166Z,8.83
2023-02-13T20:35:28.763Z,9.13
2023-02-13T20:37:58.971Z,8.07
2023-02-13T20:40:27.944Z,7.50
2023-02-13T20:42:56.584Z,7.47
2023-02-13T20:45:26.644Z,7.83
2023-02-13T20:47:55.295Z,9.60
2023-02-13T20:50:23.964Z,7.97
2023-02-13T20:52:52.654Z,8.97
2023-02-13T20:55:21.291Z,7.47
2023-02-13T20:57:49.885Z,7.73
2023-02-13T21:00:19.190Z,8.10
2023-02-13T21:02:49.393Z,8.33
2023-02-13T21:05:18.415Z,7.93
2023-02-13T21:07:47.971Z,9.43
2023-02-13T21:10:16.640Z,8.03
2023-02-13T21:12:45.232Z,7.80
2023-02-13T21:15:13.853Z,9.73
2023-02-13T21:17:42.472Z,8.50
2023-02-13T21:20:13.710Z,9.60
2023-02-13T21:22:42.320Z,9.47
2023-02-13T21:25:10.918Z,10.37
2023-02-13T21:27:39.530Z,12.60
2023-02-13T21:30:09.868Z,11.17
2023-02-13T21:32:39.457Z,12.03
2023-02-13T21:35:09.355Z,12.13
2023-02-13T21:37:39.412Z,14.20
2023-02-13T21:40:09.830Z,11.70
2023-02-13T21:42:38.414Z,14.17
2023-02-13T21:45:07.370Z,12.43
2023-02-13T21:47:35.953Z,15.97
2023-02-13T21:50:05.212Z,12.00
2023-02-13T21:52:33.874Z,11.90
2023-02-13T21:55:03.895Z,10.43
2023-02-13T21:57:32.825Z,11.27
2023-02-13T22:00:01.984Z,10.47
2023-02-13T22:02:30.716Z,10.90
2023-02-13T22:04:59.402Z,10.53
2023-02-13T22:07:28.054Z,10.63
2023-02-13T22:09:56.686Z,13.70
2023-02-13T22:12:26.730Z,9.07
2023-02-13T22:14:56.306Z,9.63
2023-02-13T22:17:24.953Z,12.33
2023-02-13T22:19:53.566Z,13.10
2023-02-13T22:22:22.227Z,14.07
2023-02-13T22:24:50.766Z,16.27
2023-02-13T22:27:19.418Z,15.17
2023-02-13T22:29:49.460Z,14.90
2023-02-13T22:32:18.222Z,14.07
2023-02-13T22:34:46.834Z,13.63
2023-02-13T22:37:15.467Z,16.47
2023-02-13T22:39:44.115Z,15.40
2023-02-13T22:42:12.775Z,14.73
2023-02-13T22:44:41.462Z,14.10
2023-02-13T22:47:11.470Z,13.10
2023-02-13T22:49:40.076Z,13.77
2023-02-13T22:52:10.687Z,13.23
2023-02-13T22:54:39.594Z,14.53
2023-02-13T22:57:08.232Z,14.30
2023-02-13T22:59:39.868Z,15.23
2023-02-13T23:02:10.215Z,15.13
2023-02-13T23:04:39.101Z,13.10
2023-02-13T23:07:07.850Z,11.90
2023-02-13T23:09:36.567Z,12.37
2023-02-13T23:12:23.109Z,12.83
2023-02-13T23:14:51.684Z,13.60
2023-02-13T23:17:38.958Z,11.70
2023-02-13T23:20:10.000Z,14.90
2023-02-13T23:22:38.812Z,12.23
2023-02-13T23:25:07.974Z,13.90
2023-02-13T23:27:37.733Z,14.57
2023-02-13T23:30:08.921Z,15.20
2023-02-13T23:32:39.087Z,12.50
2023-02-13T23:35:09.395Z,13.43
2023-02-13T23:37:38.566Z,12.87
2023-02-13T23:40:09.230Z,12.63
2023-02-13T23:42:37.890Z,12.20
2023-02-13T23:45:07.251Z,13.60
2023-02-13T23:47:35.944Z,13.13
2023-02-13T23:50:08.446Z,11.27
2023-02-13T23:52:37.169Z,12.63
2023-02-13T23:55:07.035Z,13.00
2023-02-13T23:57:35.652Z,10.83
